Map

Track Data

SID SEASON NUMBER BASIN SUBBASIN NAME ISO_TIME NATURE LAT LON WMO_WIND WMO_PRES WMO_AGENCY TRACK_TYPE DIST2LAND LANDFALL IFLAG USA_AGENCY USA_ATCF_ID USA_LAT USA_LON USA_RECORD USA_STATUS USA_WIND USA_PRES USA_SSHS USA_R34_NE USA_R34_SE USA_R34_SW USA_R34_NW USA_R50_NE USA_R50_SE USA_R50_SW USA_R50_NW USA_R64_NE USA_R64_SE USA_R64_SW USA_R64_NW USA_POCI USA_ROCI USA_RMW USA_EYE TOKYO_LAT TOKYO_LON TOKYO_GRADE TOKYO_WIND TOKYO_PRES TOKYO_R50_DIR TOKYO_R50_LONG TOKYO_R50_SHORT TOKYO_R30_DIR TOKYO_R30_LONG TOKYO_R30_SHORT TOKYO_LAND CMA_LAT CMA_LON CMA_CAT CMA_WIND CMA_PRES HKO_LAT HKO_LON HKO_CAT HKO_WIND HKO_PRES NEWDELHI_LAT NEWDELHI_LON NEWDELHI_GRADE NEWDELHI_WIND NEWDELHI_PRES NEWDELHI_CI NEWDELHI_DP NEWDELHI_POCI REUNION_LAT REUNION_LON REUNION_TYPE REUNION_WIND REUNION_PRES REUNION_TNUM REUNION_CI REUNION_RMW REUNION_R34_NE REUNION_R34_SE REUNION_R34_SW REUNION_R34_NW REUNION_R50_NE REUNION_R50_SE REUNION_R50_SW REUNION_R50_NW REUNION_R64_NE REUNION_R64_SE REUNION_R64_SW REUNION_R64_NW BOM_LAT BOM_LON BOM_TYPE BOM_WIND BOM_PRES BOM_TNUM BOM_CI BOM_RMW BOM_R34_NE BOM_R34_SE BOM_R34_SW BOM_R34_NW BOM_R50_NE BOM_R50_SE BOM_R50_SW BOM_R50_NW BOM_R64_NE BOM_R64_SE BOM_R64_SW BOM_R64_NW BOM_ROCI BOM_POCI BOM_EYE BOM_POS_METHOD BOM_PRES_METHOD NADI_LAT NADI_LON NADI_CAT NADI_WIND NADI_PRES WELLINGTON_LAT WELLINGTON_LON WELLINGTON_WIND WELLINGTON_PRES DS824_LAT DS824_LON DS824_STAGE DS824_WIND DS824_PRES TD9636_LAT TD9636_LON TD9636_STAGE TD9636_WIND TD9636_PRES TD9635_LAT TD9635_LON TD9635_WIND TD9635_PRES TD9635_ROCI NEUMANN_LAT NEUMANN_LON NEUMANN_CLASS NEUMANN_WIND NEUMANN_PRES MLC_LAT MLC_LON MLC_CLASS MLC_WIND MLC_PRES USA_GUST BOM_GUST BOM_GUST_PER REUNION_GUST REUNION_GUST_PER USA_SEAHGT USA_SEARAD_NE USA_SEARAD_SE USA_SEARAD_SW USA_SEARAD_NW STORM_SPEED STORM_DIR
1979286N17273 1979 99 NA CS NOT_NAMED 1979-10-12 12:00:00 TS 16.9000 -87.3000 20 hurdat_atl main 96 95 O_____________ hurdat_atl AL171979 16.9000 -87.3000 TD 20 -1 3 37
1979286N17273 1979 99 NA CS NOT_NAMED 1979-10-12 15:00:00 TS 17.0375 -87.1926 main 106 106 P_____________ AL171979 17.0375 -87.1926 TD 20 -1 4 32
1979286N17273 1979 99 NA CS NOT_NAMED 1979-10-12 18:00:00 TS 17.2000 -87.1000 20 hurdat_atl main 119 118 O_____________ hurdat_atl AL171979 17.2000 -87.1000 TD 20 -1 4 24
1979286N17273 1979 99 NA CS NOT_NAMED 1979-10-12 21:00:00 TS 17.3999 -87.0224 main 123 115 P_____________ AL171979 17.3999 -87.0224 TD 22 -1 4 25
1979286N17273 1979 99 NA CS NOT_NAMED 1979-10-13 00:00:00 TS 17.6000 -86.9000 25 hurdat_atl main 116 116 O_____________ hurdat_atl AL171979 17.6000 -86.9000 TD 25 -1 5 42
1979286N17273 1979 99 NA CS NOT_NAMED 1979-10-13 03:00:00 TS 17.7726 -86.6651 main 124 124 P_____________ AL171979 17.7726 -86.6651 TD 25 -1 6 58
1979286N17273 1979 99 NA CS NOT_NAMED 1979-10-13 06:00:00 TS 17.9000 -86.4000 25 hurdat_atl main 151 151 O_____________ hurdat_atl AL171979 17.9000 -86.4000 TD 25 -1 5 67
1979286N17273 1979 99 NA CS NOT_NAMED 1979-10-13 09:00:00 TS 17.9649 -86.1999 main 170 170 P_____________ AL171979 17.9649 -86.1999 TD 25 -1 4 75
1979286N17273 1979 99 NA CS NOT_NAMED 1979-10-13 12:00:00 TS 18.0000 -86.0000 25 hurdat_atl main 191 191 O_____________ hurdat_atl AL171979 18.0000 -86.0000 TD 25 -1 4 78
1979286N17273 1979 99 NA CS NOT_NAMED 1979-10-13 15:00:00 TS 18.0500 -85.7650 main 211 208 P_____________ AL171979 18.0500 -85.7650 TD 27 -1 5 78
1979286N17273 1979 99 NA CS NOT_NAMED 1979-10-13 18:00:00 TS 18.1000 -85.5000 30 hurdat_atl main 238 238 O_____________ hurdat_atl AL171979 18.1000 -85.5000 TD 30 -1 5 79
1979286N17273 1979 99 NA CS NOT_NAMED 1979-10-13 21:00:00 TS 18.1500 -85.2000 main 257 257 P_____________ AL171979 18.1500 -85.2000 TD 30 -1 6 80
1979286N17273 1979 99 NA CS NOT_NAMED 1979-10-14 00:00:00 TS 18.2000 -84.9000 30 hurdat_atl main 257 257 O_____________ hurdat_atl AL171979 18.2000 -84.9000 TD 30 -1 5 79
1979286N17273 1979 99 NA CS NOT_NAMED 1979-10-14 03:00:00 TS 18.2499 -84.6425 main 257 257 P_____________ AL171979 18.2499 -84.6425 TD 30 -1 5 78
1979286N17273 1979 99 NA CS NOT_NAMED 1979-10-14 06:00:00 TS 18.3000 -84.4000 30 hurdat_atl main 270 270 O_____________ hurdat_atl AL171979 18.3000 -84.4000 TD 30 -1 5 78
1979286N17273 1979 99 NA CS NOT_NAMED 1979-10-14 09:00:00 TS 18.3500 -84.1500 main 276 276 P_____________ AL171979 18.3500 -84.1500 TD 30 -1 5 78
1979286N17273 1979 99 NA CS NOT_NAMED 1979-10-14 12:00:00 TS 18.4000 -83.9000 30 hurdat_atl main 292 292 O_____________ hurdat_atl AL171979 18.4000 -83.9000 TD 30 -1 5 80
1979286N17273 1979 99 NA CS NOT_NAMED 1979-10-14 15:00:00 TS 18.4350 -83.6499 main 300 300 P_____________ AL171979 18.4350 -83.6499 TD 30 -1 5 78
1979286N17273 1979 99 NA CS NOT_NAMED 1979-10-14 18:00:00 TS 18.5000 -83.4000 30 hurdat_atl main 316 315 O_____________ hurdat_atl AL171979 18.5000 -83.4000 TD 30 -1 5 66
1979286N17273 1979 99 NA CS NOT_NAMED 1979-10-14 21:00:00 TS 18.6500 -83.1501 main 315 290 P_____________ AL171979 18.6500 -83.1501 TD 30 -1 6 58
1979286N17273 1979 99 NA CS NOT_NAMED 1979-10-15 00:00:00 TS 18.8000 -82.9000 30 hurdat_atl main 290 279 O_____________ hurdat_atl AL171979 18.8000 -82.9000 TD 30 -1 5 67
1979286N17273 1979 99 NA CS NOT_NAMED 1979-10-15 03:00:00 TS 18.8575 -82.6349 main 280 280 P_____________ AL171979 18.8575 -82.6349 TD 30 -1 5 78
1979286N17273 1979 99 NA CS NOT_NAMED 1979-10-15 06:00:00 TS 18.9000 -82.4000 30 hurdat_atl main 282 273 O_____________ hurdat_atl AL171979 18.9000 -82.4000 TD 30 -1 4 70
1979286N17273 1979 99 NA CS NOT_NAMED 1979-10-15 09:00:00 TS 18.9924 -82.2350 main 275 264 P_____________ AL171979 18.9924 -82.2350 TD 30 -1 3 55
1979286N17273 1979 99 NA CS NOT_NAMED 1979-10-15 12:00:00 TS 19.1000 -82.1000 30 hurdat_atl main 267 259 O_____________ hurdat_atl AL171979 19.1000 -82.1000 TD 30 -1 3 54
1979286N17273 1979 99 NA CS NOT_NAMED 1979-10-15 15:00:00 TS 19.1850 -81.9574 main 259 252 P_____________ AL171979 19.1850 -81.9574 TD 30 -1 3 55
1979286N17273 1979 99 NA CS NOT_NAMED 1979-10-15 18:00:00 TS 19.3000 -81.8000 30 hurdat_atl main 256 246 O_____________ hurdat_atl AL171979 19.3000 -81.8000 TD 30 -1 5 48
1979286N17273 1979 99 NA CS NOT_NAMED 1979-10-15 21:00:00 TS 19.4925 -81.5926 main 246 239 P_____________ AL171979 19.4925 -81.5926 TD 30 -1 6 43
1979286N17273 1979 99 NA CS NOT_NAMED 1979-10-16 00:00:00 TS 19.7000 -81.4000 30 hurdat_atl main 239 236 O_____________ hurdat_atl AL171979 19.7000 -81.4000 TD 30 -1 5 40
1979286N17273 1979 99 NA CS NOT_NAMED 1979-10-16 03:00:00 TS 19.8575 -81.2700 main 227 223 P_____________ AL171979 19.8575 -81.2700 TD 30 -1 4 32
1979286N17273 1979 99 NA CS NOT_NAMED 1979-10-16 06:00:00 TS 20.0000 -81.2000 30 hurdat_atl main 223 212 O_____________ hurdat_atl AL171979 20.0000 -81.2000 TD 30 -1 3 19
1979286N17273 1979 99 NA CS NOT_NAMED 1979-10-16 09:00:00 TS 20.1425 -81.1700 main 212 190 P_____________ AL171979 20.1425 -81.1700 TD 30 -1 3 0
1979286N17273 1979 99 NA CS NOT_NAMED 1979-10-16 12:00:00 TS 20.3000 -81.2000 30 hurdat_atl main 190 168 O_____________ hurdat_atl AL171979 20.3000 -81.2000 TD 30 -1 4 344
1979286N17273 1979 99 NA CS NOT_NAMED 1979-10-16 15:00:00 TS 20.5000 -81.2775 main 168 146 P_____________ AL171979 20.5000 -81.2775 TD 30 -1 4 335
1979286N17273 1979 99 NA CS NOT_NAMED 1979-10-16 18:00:00 TS 20.7000 -81.4000 30 hurdat_atl main 146 126 O_____________ hurdat_atl AL171979 20.7000 -81.4000 TD 30 -1 4 327
1979286N17273 1979 99 NA CS NOT_NAMED 1979-10-16 21:00:00 TS 20.8725 -81.5350 main 126 106 P_____________ AL171979 20.8725 -81.5350 TD 30 -1 4 317
1979286N17273 1979 99 NA CS NOT_NAMED 1979-10-17 00:00:00 TS 21.0000 -81.7000 30 hurdat_atl main 106 83 O_____________ hurdat_atl AL171979 21.0000 -81.7000 TD 30 -1 4 300
1979286N17273 1979 99 NA CS NOT_NAMED 1979-10-17 03:00:00 TS 21.0650 -81.8926 main 83 69 P_____________ AL171979 21.0650 -81.8926 TD 30 -1 4 285
1979286N17273 1979 99 NA CS NOT_NAMED 1979-10-17 06:00:00 TS 21.1000 -82.1000 30 hurdat_atl main 69 49 O_____________ hurdat_atl AL171979 21.1000 -82.1000 TD 30 -1 4 285
1979286N17273 1979 99 NA CS NOT_NAMED 1979-10-17 09:00:00 TS 21.1649 -82.2924 main 49 38 P_____________ AL171979 21.1649 -82.2924 TD 30 -1 4 285
1979286N17273 1979 99 NA CS NOT_NAMED 1979-10-17 12:00:00 TS 21.2000 -82.5000 30 hurdat_atl main 38 24 O_____________ hurdat_atl AL171979 21.2000 -82.5000 TD 30 -1 4 270
1979286N17273 1979 99 NA CS NOT_NAMED 1979-10-17 15:00:00 TS 21.1650 -82.7426 main 24 22 P_____________ AL171979 21.1650 -82.7426 TD 30 -1 5 258
1979286N17273 1979 99 NA CS NOT_NAMED 1979-10-17 18:00:00 TS 21.1000 -83.0000 30 hurdat_atl main 39 39 O_____________ hurdat_atl AL171979 21.1000 -83.0000 TD 30 -1 5 256
1979286N17273 1979 99 NA CS NOT_NAMED 1979-10-17 21:00:00 TS 21.0500 -83.2500 main 59 59 P_____________ AL171979 21.0500 -83.2500 TD 27 -1 5 258
1979286N17273 1979 99 NA CS NOT_NAMED 1979-10-18 00:00:00 TS 21.0000 -83.5000 25 hurdat_atl main 76 76 O_____________ hurdat_atl AL171979 21.0000 -83.5000 TD 25 -1 5 261
1979286N17273 1979 99 NA CS NOT_NAMED 1979-10-18 03:00:00 TS 20.9725 -83.7574 main 99 99 P_____________ AL171979 20.9725 -83.7574 TD 25 -1 5 258
1979286N17273 1979 99 NA CS NOT_NAMED 1979-10-18 06:00:00 TS 20.9000 -84.0000 25 hurdat_atl main 111 108 O_____________ hurdat_atl AL171979 20.9000 -84.0000 TD 25 -1 5 238
1979286N17273 1979 99 NA CS NOT_NAMED 1979-10-18 09:00:00 TS 20.7149 -84.2076 main 126 124 P_____________ AL171979 20.7149 -84.2076 TD 25 -1 5 223
1979286N17273 1979 99 NA CS NOT_NAMED 1979-10-18 12:00:00 TS 20.5000 -84.4000 25 hurdat_atl main 145 145 O_____________ hurdat_atl AL171979 20.5000 -84.4000 TD 25 -1 5 225
1979286N17273 1979 99 NA CS NOT_NAMED 1979-10-18 15:00:00 TS 20.3350 -84.6075 main 168 168 P_____________ AL171979 20.3350 -84.6075 TD 25 -1 5 231
1979286N17273 1979 99 NA CS NOT_NAMED 1979-10-18 18:00:00 TS 20.2000 -84.8000 25 hurdat_atl main 178 178 O_____________ hurdat_atl AL171979 20.2000 -84.8000 TD 25 -1 4 232
1979286N17273 1979 99 NA CS NOT_NAMED 1979-10-18 21:00:00 TS 20.0999 -84.9349 main 190 190 P_____________ AL171979 20.0999 -84.9349 TD 25 -1 3 235
1979286N17273 1979 99 NA CS NOT_NAMED 1979-10-19 00:00:00 TS 20.0000 -85.1000 25 hurdat_atl main 203 185 O_____________ hurdat_atl AL171979 20.0000 -85.1000 TD 25 -1 5 239
1979286N17273 1979 99 NA CS NOT_NAMED 1979-10-19 03:00:00 TS 19.8500 -85.3701 main 185 175 P_____________ AL171979 19.8500 -85.3701 TD 25 -1 6 242
1979286N17273 1979 99 NA CS NOT_NAMED 1979-10-19 06:00:00 TS 19.7000 -85.7000 25 hurdat_atl main 175 147 O_____________ hurdat_atl AL171979 19.7000 -85.7000 TD 25 -1 7 249
1979286N17273 1979 99 NA CS NOT_NAMED 1979-10-19 09:00:00 TS 19.6076 -86.0574 main 136 104 P_____________ AL171979 19.6076 -86.0574 TD 25 -1 7 253
1979286N17273 1979 99 NA CS NOT_NAMED 1979-10-19 12:00:00 TS 19.5000 -86.4000 25 hurdat_atl main 104 76 O_____________ hurdat_atl AL171979 19.5000 -86.4000 TD 25 -1 7 242
1979286N17273 1979 99 NA CS NOT_NAMED 1979-10-19 15:00:00 TS 19.2924 -86.6801 main 76 64 P_____________ AL171979 19.2924 -86.6801 TD 25 -1 6 230
1979286N17273 1979 99 NA CS NOT_NAMED 1979-10-19 18:00:00 TS 19.1000 -86.9000 25 hurdat_atl main 64 53 O_____________ hurdat_atl AL171979 19.1000 -86.9000 TD 25 -1 4 232
1979286N17273 1979 99 NA CS NOT_NAMED 1979-10-19 21:00:00 TS 19.0348 -87.0348 main 57 38 P_____________ AL171979 19.0348 -87.0348 TD 22 -1 3 250
1979286N17273 1979 99 NA CS NOT_NAMED 1979-10-20 00:00:00 TS 19.0000 -87.2000 20 hurdat_atl main 38 10 O_____________ hurdat_atl AL171979 19.0000 -87.2000 TD 20 -1 5 255
1979286N17273 1979 99 NA CS NOT_NAMED 1979-10-20 03:00:00 TS 18.9077 -87.5501 main 0 0 P_____________ AL171979 18.9077 -87.5501 TD 20 -1 7 253
1979286N17273 1979 99 NA NA NOT_NAMED 1979-10-20 06:00:00 TS 18.8000 -87.9000 20 hurdat_atl main 0 0 O_____________ hurdat_atl AL171979 18.8000 -87.9000 TD 20 -1 6 248
1979286N17273 1979 99 NA CS NOT_NAMED 1979-10-20 09:00:00 TS 18.6974 -88.0999 main 10 10 P_____________ AL171979 18.6974 -88.0999 TD -1 3 235
1979286N17273 1979 99 NA CS NOT_NAMED 1979-10-20 12:00:00 TS 18.6000 -88.2000 hurdat_atl main 10 O_____________ hurdat_atl AL171979 18.6000 -88.2000 TD -1 3 225

About IBTrACS Database

This database is a web-friendly format of International Best Track Archive for Climate Stewardship (IBTrACS), a global best track data archive curated by NOAA dating back to 1842.

Updated: 2021-11-26